Time;durP1;ratioP1;P1;durP2;ratioP2;P2;SDS_P1;SDS_P2;PMS_P1;PMS_P2;Temp;Humidity;BMP_temperature;BMP_pressure;BME280_temperature;BME280_humidity;BME280_pressure;Samples;Min_cycle;Max_cycle;Signal;HPM_P1;HPM_P2
2022/10/23 00:00:10;;;;;;;30.02;15.50;;;;;;;19.57;58.71;101510.81;4940865;28;20041;-69
2022/10/23 00:02:35;;;;;;;25.02;16.23;;;;;;;19.56;58.82;101515.44;4943675;29;20110;-68
2022/10/23 00:05:02;;;;;;;27.13;16.10;;;;;;;19.55;58.98;101511.09;4945874;28;20030;-69
2022/10/23 00:07:27;;;;;;;20.83;15.10;;;;;;;19.53;58.12;101509.72;4950603;28;20130;-68
2022/10/23 00:09:53;;;;;;;20.27;15.25;;;;;;;19.62;58.28;101508.09;4949710;28;20488;-70
2022/10/23 00:12:18;;;;;;;26.25;15.35;;;;;;;19.62;58.34;101508.94;4942003;28;20036;-69
2022/10/23 00:14:43;;;;;;;26.65;14.82;;;;;;;19.63;57.93;101516.03;4943275;29;20040;-69
2022/10/23 00:17:11;;;;;;;20.92;15.32;;;;;;;19.59;58.69;101514.09;4945381;29;20035;-70
2022/10/23 00:19:36;;;;;;;24.60;15.10;;;;;;;19.43;58.79;101521.41;4942335;28;20047;-68
2022/10/23 00:22:01;;;;;;;24.88;14.15;;;;;;;19.48;58.64;101518.69;4946014;28;20458;-68
2022/10/23 00:24:27;;;;;;;17.52;13.98;;;;;;;19.43;58.56;101520.59;4941781;28;20051;-69
2022/10/23 00:26:52;;;;;;;24.25;14.35;;;;;;;19.45;58.54;101518.41;4942760;28;20394;-68
2022/10/23 00:29:18;;;;;;;27.55;14.45;;;;;;;19.42;58.92;101511.59;4941191;29;20377;-69
2022/10/23 00:31:43;;;;;;;24.08;14.57;;;;;;;19.55;58.31;101508.38;4948140;29;20035;-69
2022/10/23 00:34:09;;;;;;;20.40;13.73;;;;;;;19.52;59.05;101500.72;4939579;28;20036;-67
2022/10/23 00:36:35;;;;;;;22.30;13.15;;;;;;;19.45;59.29;101497.44;4946093;28;20031;-69
2022/10/23 00:39:01;;;;;;;23.52;14.88;;;;;;;19.55;58.90;101502.09;4952554;28;20314;-68
2022/10/23 00:41:28;;;;;;;22.55;14.30;;;;;;;19.51;59.03;101495.53;4952173;28;20035;-69
2022/10/23 00:44:04;;;;;;;24.85;13.93;;;;;;;19.45;59.33;101493.88;4965121;28;20027;-70
2022/10/23 00:46:31;;;;;;;29.17;13.32;;;;;;;19.45;59.61;101497.44;4971638;28;20047;-69
2022/10/23 00:48:57;;;;;;;27.33;14.40;;;;;;;19.45;59.57;101504.78;4971669;28;20041;-69
2022/10/23 00:51:23;;;;;;;21.33;14.00;;;;;;;19.42;59.66;101495.22;4953935;28;20031;-70
2022/10/23 00:53:53;;;;;;;39.47;15.38;;;;;;;19.50;58.80;101489.25;4952800;28;20035;-69
2022/10/23 00:56:19;;;;;;;18.58;13.80;;;;;;;19.48;59.47;101483.25;4972198;28;20065;-70
2022/10/23 00:58:44;;;;;;;31.00;13.32;;;;;;;19.43;59.52;101485.97;4971661;28;20170;-68
2022/10/23 01:01:16;;;;;;;25.80;14.48;;;;;;;19.36;59.46;101492.78;4967857;28;20032;-69
2022/10/23 01:03:41;;;;;;;20.40;14.00;;;;;;;19.47;59.23;101491.72;4955880;28;20047;-70
2022/10/23 01:06:11;;;;;;;22.52;14.73;;;;;;;19.54;58.96;101500.44;4955797;28;20027;-68
2022/10/23 01:08:53;;;;;;;21.25;13.20;;;;;;;19.49;58.81;101495.81;4955976;28;20373;-69
2022/10/23 01:11:38;;;;;;;22.90;13.98;;;;;;;19.43;59.33;101496.88;4955734;28;20038;-69
2022/10/23 01:14:31;;;;;;;27.83;12.85;;;;;;;19.41;59.06;101492.78;4956056;28;20063;-68
2022/10/23 01:17:08;;;;;;;22.48;13.40;;;;;;;19.47;58.98;101489.81;4955720;29;20043;-68
2022/10/23 01:19:43;;;;;;;26.98;14.25;;;;;;;19.45;58.71;101482.97;4955233;28;20133;-69
2022/10/23 01:22:40;;;;;;;25.23;14.55;;;;;;;19.33;60.11;101482.38;4955286;28;20122;-71
2022/10/23 01:25:11;;;;;;;22.13;13.57;;;;;;;19.46;59.18;101476.44;4955314;28;20122;-68
2022/10/23 01:27:41;;;;;;;22.13;14.75;;;;;;;19.45;59.36;101472.06;4955140;28;20043;-70
2022/10/23 01:30:12;;;;;;;20.60;13.27;;;;;;;19.41;59.59;101474.53;4955406;28;20027;-69
2022/10/23 01:32:49;;;;;;;20.25;13.13;;;;;;;19.41;58.99;101479.16;4955249;28;20106;-69
2022/10/23 01:35:30;;;;;;;28.08;13.40;;;;;;;19.40;59.09;101466.63;4955677;28;20495;-69
2022/10/23 01:38:10;;;;;;;15.95;12.65;;;;;;;19.30;58.76;101464.66;4955674;28;20074;-69
2022/10/23 01:41:01;;;;;;;19.52;12.52;;;;;;;19.34;58.85;101464.97;4955167;28;20032;-70
2022/10/23 01:43:33;;;;;;;25.20;13.38;;;;;;;19.36;59.12;101465.50;4963601;28;20035;-69
2022/10/23 01:46:03;;;;;;;18.75;13.40;;;;;;;19.31;58.89;101458.09;4974324;28;20217;-69
2022/10/23 01:48:32;;;;;;;24.95;12.80;;;;;;;19.36;58.45;101463.59;4974266;28;20042;-69
2022/10/23 01:51:06;;;;;;;18.15;13.15;;;;;;;19.38;58.83;101457.88;4960059;28;20043;-69
2022/10/23 01:53:37;;;;;;;19.65;12.60;;;;;;;19.30;59.13;101464.66;4954834;28;20085;-69
2022/10/23 01:56:06;;;;;;;20.55;14.18;;;;;;;19.24;58.96;101463.78;4973879;28;20635;-68
2022/10/23 01:58:34;;;;;;;19.02;12.73;;;;;;;19.26;58.89;101464.34;4961827;28;20039;-70
2022/10/23 02:01:04;;;;;;;26.17;14.30;;;;;;;19.27;58.70;101459.72;4954774;28;20118;-69
2022/10/23 02:03:32;;;;;;;26.08;16.08;;;;;;;19.30;58.46;101451.03;4954748;28;20047;-71
2022/10/23 02:05:58;;;;;;;17.50;12.02;;;;;;;19.29;58.76;101449.38;4954711;28;20055;-70
2022/10/23 02:08:26;;;;;;;25.63;14.40;;;;;;;19.15;58.77;101443.59;4954667;28;20077;-70
2022/10/23 02:11:08;;;;;;;26.95;14.52;;;;;;;19.26;58.94;101445.25;4955343;28;20027;-70
2022/10/23 02:13:55;;;;;;;29.33;14.63;;;;;;;19.15;59.05;101440.06;4953311;28;20430;-70
2022/10/23 02:16:21;;;;;;;23.75;14.57;;;;;;;19.18;58.68;101445.00;4954877;28;20447;-70
2022/10/23 02:19:11;;;;;;;22.67;13.57;;;;;;;19.20;58.47;101440.88;4954252;28;20122;-72
2022/10/23 02:22:10;;;;;;;22.02;13.45;;;;;;;19.19;58.90;101439.25;4954471;28;20065;-69
2022/10/23 02:24:42;;;;;;;27.73;14.93;;;;;;;19.17;58.92;101429.72;4954576;28;20042;-71
2022/10/23 02:27:13;;;;;;;24.40;14.70;;;;;;;19.15;59.07;101429.97;4954107;28;20042;-71
2022/10/23 02:29:46;;;;;;;18.38;14.25;;;;;;;19.13;59.08;101425.88;4954519;28;20054;-69
2022/10/23 02:32:14;;;;;;;29.92;14.85;;;;;;;19.13;58.66;101423.97;4954722;28;20425;-70
2022/10/23 02:34:39;;;;;;;26.05;15.00;;;;;;;19.08;59.12;101420.44;4954471;28;20043;-69
2022/10/23 02:37:05;;;;;;;19.60;14.45;;;;;;;19.05;58.99;101421.78;4953999;28;20039;-70
2022/10/23 02:39:30;;;;;;;25.73;15.15;;;;;;;19.08;58.68;101414.97;4954239;28;20043;-69
2022/10/23 02:42:01;;;;;;;32.75;14.35;;;;;;;19.02;59.00;101410.59;4953675;28;20403;-69
2022/10/23 02:44:50;;;;;;;26.45;14.48;;;;;;;19.03;59.12;101412.22;4970340;28;20038;-68
2022/10/23 02:47:23;;;;;;;19.33;14.55;;;;;;;19.05;58.92;101405.41;4973786;28;20118;-70
2022/10/23 02:49:51;;;;;;;21.83;13.95;;;;;;;19.07;58.46;101403.25;4968410;28;20114;-69
2022/10/23 02:52:31;;;;;;;25.83;15.02;;;;;;;19.02;59.14;101397.81;4953741;28;20059;-68
2022/10/23 02:55:16;;;;;;;21.65;15.85;;;;;;;19.02;58.80;101400.53;4963156;28;20064;-70
2022/10/23 02:57:55;;;;;;;37.22;16.35;;;;;;;19.15;58.78;101401.91;4972796;28;20054;-70
2022/10/23 03:00:24;;;;;;;24.65;15.43;;;;;;;19.08;59.06;101396.72;4972995;28;20031;-68
2022/10/23 03:02:56;;;;;;;28.40;14.95;;;;;;;18.90;59.40;101397.22;4973106;28;20039;-70
2022/10/23 03:05:27;;;;;;;25.20;15.38;;;;;;;18.95;59.44;101393.66;4973010;28;20054;-70
2022/10/23 03:07:52;;;;;;;23.05;15.85;;;;;;;19.05;59.12;101386.34;4973303;28;20027;-70
2022/10/23 03:10:18;;;;;;;25.73;17.00;;;;;;;18.83;60.09;101380.28;4972831;28;20466;-69
2022/10/23 03:12:45;;;;;;;23.73;14.82;;;;;;;18.89;59.58;101379.22;4972506;28;20035;-69
2022/10/23 03:15:11;;;;;;;28.65;16.92;;;;;;;18.92;59.86;101372.41;4972715;28;20042;-70
2022/10/23 03:17:37;;;;;;;29.90;15.52;;;;;;;18.85;60.13;101372.66;4972402;28;20274;-69
2022/10/23 03:20:04;;;;;;;28.67;17.35;;;;;;;18.92;60.20;101366.97;4973082;28;20031;-69
2022/10/23 03:22:30;;;;;;;29.17;16.40;;;;;;;18.69;60.85;101362.00;4971251;28;20380;-68
2022/10/23 03:24:55;;;;;;;37.50;16.95;;;;;;;18.94;60.33;101365.63;4972388;28;20050;-70
2022/10/23 03:27:20;;;;;;;37.35;16.45;;;;;;;19.03;59.89;101365.91;4987264;28;20050;-70
2022/10/23 03:29:46;;;;;;;32.47;17.25;;;;;;;18.86;60.46;101362.59;4972700;28;20521;-70
2022/10/23 03:32:11;;;;;;;25.17;15.57;;;;;;;18.74;61.00;101351.09;4972705;28;20023;-70
2022/10/23 03:34:36;;;;;;;26.75;16.20;;;;;;;18.89;60.23;101359.31;4972409;28;20045;-69
2022/10/23 03:37:02;;;;;;;33.03;16.65;;;;;;;18.85;61.09;101355.53;4972207;28;20045;-69
2022/10/23 03:39:27;;;;;;;32.47;16.20;;;;;;;18.94;60.82;101356.63;4965915;28;20035;-69
2022/10/23 03:41:53;;;;;;;35.53;17.02;;;;;;;18.88;60.53;101363.16;4952952;28;20046;-70
2022/10/23 03:44:18;;;;;;;31.08;15.52;;;;;;;18.89;60.46;101353.88;4953400;29;20035;-69
2022/10/23 03:46:44;;;;;;;34.25;16.88;;;;;;;18.94;60.40;101360.19;4953116;28;20043;-69
2022/10/23 03:49:09;;;;;;;38.30;16.60;;;;;;;18.76;61.11;101366.09;4952646;28;20046;-69
2022/10/23 03:51:35;;;;;;;26.63;15.80;;;;;;;18.83;60.53;101363.94;4952404;28;20567;-71
2022/10/23 03:54:00;;;;;;;28.70;16.00;;;;;;;18.73;61.22;101371.25;4955045;28;20031;-69
2022/10/23 03:56:26;;;;;;;33.53;16.30;;;;;;;18.85;60.58;101363.69;4972063;28;20458;-69
2022/10/23 03:58:51;;;;;;;28.95;15.63;;;;;;;18.80;60.41;101363.66;4961060;28;20035;-70
2022/10/23 04:01:19;;;;;;;35.83;16.63;;;;;;;18.81;60.63;101360.66;4952621;28;20043;-71
2022/10/23 04:03:44;;;;;;;31.40;15.57;;;;;;;18.88;59.83;101347.63;4965638;28;20058;-69
2022/10/23 04:06:09;;;;;;;24.67;14.95;;;;;;;18.72;60.17;101350.56;4972029;28;20066;-70
2022/10/23 04:08:35;;;;;;;23.23;15.63;;;;;;;18.87;59.83;101351.44;4972192;28;20085;-70
2022/10/23 04:11:00;;;;;;;27.60;16.08;;;;;;;18.82;59.60;101358.75;4972378;28;20398;-70
2022/10/23 04:13:26;;;;;;;29.75;14.90;;;;;;;18.73;60.68;101357.66;4971643;28;20082;-70
2022/10/23 04:15:51;;;;;;;31.20;16.00;;;;;;;18.59;60.67;101361.94;4971850;28;20507;-69
2022/10/23 04:18:18;;;;;;;31.92;14.23;;;;;;;18.69;60.79;101353.81;4971894;28;20046;-69
2022/10/23 04:20:46;;;;;;;31.38;15.38;;;;;;;18.83;60.05;101344.06;4971890;28;20506;-71
2022/10/23 04:23:11;;;;;;;27.73;14.65;;;;;;;18.71;60.73;101338.03;4972302;28;20101;-69
2022/10/23 04:25:37;;;;;;;29.27;15.18;;;;;;;18.64;60.67;101337.44;4971934;28;20039;-70
2022/10/23 04:28:02;;;;;;;35.15;14.57;;;;;;;18.74;61.05;101334.75;4971673;28;20042;-69
2022/10/23 04:30:28;;;;;;;29.75;14.30;;;;;;;18.74;60.75;101330.16;4971780;28;20043;-70
2022/10/23 04:32:53;;;;;;;27.35;16.27;;;;;;;18.67;60.61;101335.00;4971943;28;20089;-71
2022/10/23 04:35:19;;;;;;;29.52;15.57;;;;;;;18.59;61.10;101332.00;4971878;28;20046;-69
2022/10/23 04:37:44;;;;;;;30.38;15.13;;;;;;;18.61;61.15;101333.38;4974328;28;20030;-70
2022/10/23 04:40:10;;;;;;;29.30;15.13;;;;;;;18.74;61.37;101329.31;4963071;28;20043;-70
2022/10/23 04:42:36;;;;;;;29.23;15.15;;;;;;;18.73;61.15;101322.25;4956018;28;20039;-70
2022/10/23 04:45:01;;;;;;;32.53;16.05;;;;;;;18.59;61.50;101323.81;4954763;28;20047;-70
2022/10/23 04:47:26;;;;;;;34.45;15.07;;;;;;;18.52;62.00;101318.63;4955710;28;20039;-70
2022/10/23 04:49:52;;;;;;;24.27;15.50;;;;;;;18.84;60.44;101315.75;4956540;28;20015;-70
2022/10/23 04:52:17;;;;;;;32.15;15.57;;;;;;;18.87;60.47;101305.13;4955851;28;20054;-69
2022/10/23 04:54:43;;;;;;;37.13;15.52;;;;;;;18.86;60.02;101311.69;4963636;28;20379;-69
2022/10/23 04:57:08;;;;;;;36.85;16.88;;;;;;;18.94;59.98;101304.88;4975137;28;20034;-70
2022/10/23 04:59:33;;;;;;;25.25;14.85;;;;;;;18.81;60.53;101299.94;4975148;28;20031;-70
2022/10/23 05:01:59;;;;;;;27.45;15.40;;;;;;;18.89;59.92;101302.94;4975159;28;20039;-69
2022/10/23 05:04:24;;;;;;;28.38;15.30;;;;;;;18.84;60.37;101299.41;4955804;28;20046;-70
2022/10/23 05:06:50;;;;;;;33.15;14.05;;;;;;;18.91;60.15;101294.50;4955616;28;20070;-69
2022/10/23 05:09:15;;;;;;;27.55;15.82;;;;;;;18.88;60.01;101292.34;4955849;28;20028;-69
2022/10/23 05:11:40;;;;;;;28.25;14.05;;;;;;;18.93;60.35;101297.78;4955795;28;20097;-70
2022/10/23 05:14:06;;;;;;;51.38;16.58;;;;;;;18.91;60.16;101283.59;4956118;29;20031;-69
2022/10/23 05:16:40;;;;;;;36.65;15.50;;;;;;;18.93;60.38;101281.44;4955567;28;20063;-70
2022/10/23 05:19:09;;;;;;;32.90;15.30;;;;;;;18.87;60.27;101271.66;4955442;28;20050;-70
2022/10/23 05:21:37;;;;;;;27.67;15.15;;;;;;;18.89;60.73;101272.16;4955557;28;20411;-69
2022/10/23 05:24:02;;;;;;;31.30;15.98;;;;;;;18.71;61.32;101265.31;4955519;28;20499;-69
2022/10/23 05:26:30;;;;;;;35.25;16.08;;;;;;;18.84;60.79;101261.28;4955458;28;20023;-70
2022/10/23 05:28:55;;;;;;;27.92;14.80;;;;;;;18.65;61.70;101263.69;4955603;28;20039;-69
2022/10/23 05:31:23;;;;;;;28.70;14.85;;;;;;;18.87;60.87;101261.56;4955416;28;20036;-70
2022/10/23 05:33:49;;;;;;;26.60;15.30;;;;;;;18.92;60.61;101266.19;4955179;28;20039;-70
2022/10/23 05:36:15;;;;;;;28.50;15.15;;;;;;;19.00;60.14;101262.94;4955185;28;20034;-71
2022/10/23 05:38:41;;;;;;;27.40;14.40;;;;;;;18.89;60.71;101264.00;4955418;28;20039;-70
2022/10/23 05:41:06;;;;;;;33.17;14.82;;;;;;;19.06;60.42;101262.69;4974773;28;20030;-69
2022/10/23 05:43:31;;;;;;;22.40;12.98;;;;;;;19.00;60.59;101263.78;4961851;28;20047;-70
2022/10/23 05:45:58;;;;;;;36.20;13.90;;;;;;;19.11;60.29;101262.69;4954933;28;20511;-70
2022/10/23 05:48:24;;;;;;;29.60;14.45;;;;;;;18.76;61.27;101254.47;4954987;28;20094;-70
2022/10/23 05:50:49;;;;;;;29.40;13.60;;;;;;;19.02;61.02;101266.22;4954683;28;20047;-68
2022/10/23 05:53:15;;;;;;;25.40;14.20;;;;;;;19.08;60.58;101263.25;4954089;28;20050;-68
2022/10/23 05:55:40;;;;;;;32.80;13.98;;;;;;;18.96;61.07;101278.19;4970173;28;20030;-69
2022/10/23 05:58:05;;;;;;;32.42;14.43;;;;;;;19.12;60.56;101272.47;4974105;28;20167;-69
2022/10/23 06:00:31;;;;;;;27.20;13.80;;;;;;;19.06;60.71;101273.59;4973946;28;20038;-70
2022/10/23 06:03:00;;;;;;;33.85;14.23;;;;;;;19.09;61.24;101272.22;4966095;28;20513;-71
2022/10/23 06:05:26;;;;;;;27.35;15.43;;;;;;;19.22;60.59;101263.53;4954582;28;20046;-71
2022/10/23 06:07:51;;;;;;;24.73;13.85;;;;;;;19.13;61.00;101268.69;4955266;28;20039;-70
2022/10/23 06:10:16;;;;;;;32.25;13.68;;;;;;;18.96;61.54;101259.13;4954865;28;20043;-71
2022/10/23 06:12:42;;;;;;;26.83;14.40;;;;;;;19.17;61.19;101255.31;4954642;28;20035;-70
2022/10/23 06:15:08;;;;;;;29.80;14.75;;;;;;;19.15;60.74;101254.78;4954359;28;20027;-72
2022/10/23 06:17:33;;;;;;;31.05;15.93;;;;;;;19.17;60.82;101255.31;4954307;28;20047;-70
2022/10/23 06:20:01;;;;;;;24.05;13.82;;;;;;;19.12;60.95;101255.34;4954789;28;20038;-70
2022/10/23 06:22:27;;;;;;;27.67;13.60;;;;;;;18.89;61.24;101256.66;4954108;28;20398;-69
2022/10/23 06:24:53;;;;;;;28.15;13.73;;;;;;;19.21;60.65;101256.41;4954158;28;20062;-68
2022/10/23 06:27:18;;;;;;;33.78;14.50;;;;;;;18.95;61.34;101260.19;4954067;28;20031;-69
2022/10/23 06:29:43;;;;;;;25.13;13.38;;;;;;;19.24;60.52;101248.50;4954070;28;20043;-70
2022/10/23 06:32:09;;;;;;;21.67;14.40;;;;;;;19.33;60.47;101243.38;4954478;29;20419;-70
2022/10/23 06:34:34;;;;;;;30.05;13.23;;;;;;;19.28;60.35;101241.44;4954566;28;20090;-70
2022/10/23 06:37:01;;;;;;;30.33;13.88;;;;;;;19.42;59.81;101249.91;4970763;28;20039;-70
2022/10/23 06:39:26;;;;;;;26.60;13.35;;;;;;;19.24;60.44;101240.34;4967305;28;20507;-71
2022/10/23 06:41:52;;;;;;;32.28;13.63;;;;;;;19.26;60.33;101234.63;4954166;28;20053;-72
2022/10/23 06:44:17;;;;;;;27.40;13.15;;;;;;;19.21;60.44;101232.72;4954342;28;20038;-70
2022/10/23 06:46:45;;;;;;;29.20;15.05;;;;;;;19.20;60.64;101233.78;4953911;28;20533;-70
2022/10/23 06:49:13;;;;;;;28.45;12.75;;;;;;;19.21;60.68;101237.34;4953811;28;20039;-71
2022/10/23 06:51:38;;;;;;;27.90;13.27;;;;;;;19.28;60.40;101237.91;4934397;29;20040;-71
2022/10/23 06:54:03;;;;;;;28.33;12.73;;;;;;;19.42;60.44;101236.28;4937351;28;20038;-70
2022/10/23 06:56:29;;;;;;;24.40;13.68;;;;;;;19.49;60.18;101241.44;4953921;28;20050;-70
2022/10/23 06:58:55;;;;;;;21.88;13.02;;;;;;;19.46;59.76;101234.63;4953964;28;20031;-70
2022/10/23 07:01:20;;;;;;;25.85;12.95;;;;;;;19.40;60.49;101241.19;4953411;28;20126;-71
2022/10/23 07:03:47;;;;;;;22.45;12.02;;;;;;;19.53;60.25;101234.38;4968043;28;20043;-71
2022/10/23 07:06:13;;;;;;;29.88;13.07;;;;;;;19.53;60.49;101240.63;4972784;28;20038;-71
2022/10/23 07:08:39;;;;;;;27.58;14.40;;;;;;;19.52;60.19;101236.25;4972630;28;20031;-72
2022/10/23 07:11:06;;;;;;;22.98;12.95;;;;;;;19.48;60.67;101243.34;4973024;28;20463;-70
2022/10/23 07:13:33;;;;;;;26.20;12.00;;;;;;;19.69;59.97;101235.97;4972579;28;20510;-69
2022/10/23 07:16:07;;;;;;;25.63;13.25;;;;;;;19.59;60.17;101236.81;4972663;28;20061;-70
2022/10/23 07:18:32;;;;;;;31.80;12.20;;;;;;;19.68;60.05;101226.97;4972384;28;20035;-70
2022/10/23 07:20:57;;;;;;;24.98;11.90;;;;;;;19.69;60.18;101231.34;4972367;28;20109;-70
2022/10/23 07:23:23;;;;;;;26.02;12.73;;;;;;;19.86;59.72;101223.66;4972689;28;20033;-71
2022/10/23 07:25:48;;;;;;;26.40;12.43;;;;;;;20.01;59.50;101220.88;4972824;28;20105;-71
2022/10/23 07:28:14;;;;;;;17.00;12.10;;;;;;;19.82;59.69;101214.41;4972399;28;20034;-69
2022/10/23 07:30:40;;;;;;;26.83;11.68;;;;;;;20.01;59.59;101211.88;4972346;28;20525;-69
2022/10/23 07:33:05;;;;;;;31.00;11.45;;;;;;;20.02;59.40;101211.63;4972376;28;20081;-71
2022/10/23 07:35:31;;;;;;;17.63;11.32;;;;;;;19.98;59.55;101207.81;4963477;28;20031;-69
2022/10/23 07:37:58;;;;;;;22.75;11.10;;;;;;;20.13;59.53;101204.19;4953324;28;20073;-69
2022/10/23 07:40:24;;;;;;;27.60;10.77;;;;;;;20.01;59.75;101201.78;4952929;28;20101;-68
2022/10/23 07:42:49;;;;;;;19.88;10.65;;;;;;;20.03;59.89;101206.94;4952795;28;20047;-70
2022/10/23 07:45:15;;;;;;;25.73;11.70;;;;;;;19.94;60.05;101212.19;4952800;28;20051;-69
2022/10/23 07:47:40;;;;;;;17.17;11.30;;;;;;;19.96;60.32;101206.44;4952672;28;20395;-69
2022/10/23 07:50:06;;;;;;;16.27;11.30;;;;;;;20.00;60.22;101207.53;4953223;28;20032;-70
2022/10/23 07:52:34;;;;;;;21.20;11.32;;;;;;;19.95;60.52;101197.44;4952658;28;20515;-70
2022/10/23 07:55:00;;;;;;;19.52;11.10;;;;;;;20.07;60.21;101195.22;4962645;28;20073;-70
2022/10/23 07:57:25;;;;;;;18.02;11.77;;;;;;;20.00;60.26;101193.88;4971886;28;20039;-70
2022/10/23 07:59:50;;;;;;;18.63;11.38;;;;;;;20.06;60.58;101185.41;4986760;28;20031;-68
2022/10/23 08:02:16;;;;;;;16.48;10.35;;;;;;;20.10;60.22;101193.84;4969673;28;20434;-70
2022/10/23 08:04:42;;;;;;;15.68;11.70;;;;;;;20.28;59.85;101195.16;4952940;28;20060;-71
2022/10/23 08:07:07;;;;;;;15.13;10.63;;;;;;;20.30;59.96;101187.50;4952666;28;20082;-69
2022/10/23 08:09:33;;;;;;;21.63;9.82;;;;;;;20.42;59.50;101188.00;4952643;28;20533;-69
2022/10/23 08:11:59;;;;;;;21.40;11.27;;;;;;;20.24;60.25;101194.91;4954050;28;20039;-68
2022/10/23 08:14:25;;;;;;;17.40;11.73;;;;;;;20.28;60.49;101185.06;4956673;28;20038;-69
2022/10/23 08:16:50;;;;;;;17.10;10.90;;;;;;;20.48;59.77;101175.94;4957187;28;20039;-69
2022/10/23 08:19:15;;;;;;;17.45;10.80;;;;;;;20.36;60.15;101183.66;4956377;28;20062;-71
2022/10/23 08:21:41;;;;;;;17.50;10.75;;;;;;;20.11;61.33;101182.63;4956273;28;20047;-69
2022/10/23 08:24:06;;;;;;;25.92;11.48;;;;;;;20.28;60.96;101184.22;4956513;28;20054;-69
2022/10/23 08:26:32;;;;;;;21.98;10.15;;;;;;;20.73;59.88;101175.75;4956450;28;20050;-70
2022/10/23 08:28:58;;;;;;;16.60;8.70;;;;;;;20.84;59.34;101177.31;4956733;28;20042;-70
2022/10/23 08:31:24;;;;;;;15.82;9.57;;;;;;;20.93;59.01;101172.88;4956012;28;20034;-70
2022/10/23 08:33:49;;;;;;;18.50;9.93;;;;;;;21.07;59.02;101170.34;4955854;28;20399;-71
2022/10/23 08:36:22;;;;;;;13.10;9.20;;;;;;;20.76;59.82;101165.09;4950346;28;20038;-72
2022/10/23 08:38:48;;;;;;;15.90;10.20;;;;;;;21.24;58.20;101166.09;4947131;28;20575;-72
2022/10/23 08:41:33;;;;;;;12.82;8.55;;;;;;;20.86;59.49;101165.00;4948459;29;20050;-70
2022/10/23 08:44:08;;;;;;;11.25;8.05;;;;;;;21.22;58.78;101165.56;4945877;29;20036;-71
2022/10/23 08:46:39;;;;;;;17.02;9.13;;;;;;;20.80;59.81;101157.94;4946710;28;20121;-71
2022/10/23 08:49:04;;;;;;;13.10;8.65;;;;;;;21.04;59.69;101159.97;4951888;28;20038;-70
2022/10/23 08:51:42;;;;;;;19.15;8.20;;;;;;;21.28;58.23;101158.94;4951711;28;20439;-71
2022/10/23 08:54:23;;;;;;;17.83;9.15;;;;;;;20.80;59.79;101155.22;4951541;28;20050;-70
2022/10/23 08:56:52;;;;;;;15.88;8.43;;;;;;;21.27;58.92;101148.25;4953641;28;20036;-70
2022/10/23 08:59:28;;;;;;;13.57;8.18;;;;;;;21.33;58.70;101139.72;4952615;28;20039;-70
2022/10/23 09:02:02;;;;;;;12.60;9.13;;;;;;;21.46;58.15;101143.72;4952127;29;20048;-74
2022/10/23 09:04:27;;;;;;;15.48;9.45;;;;;;;21.27;58.59;101143.63;4950902;29;20046;-69
2022/10/23 09:07:11;;;;;;;16.15;8.27;;;;;;;21.59;57.92;101130.16;4946533;28;20474;-72
2022/10/23 09:09:58;;;;;;;21.02;9.20;;;;;;;21.60;58.23;101125.50;4946983;28;20237;-71
2022/10/23 09:12:26;;;;;;;8.43;6.78;;;;;;;21.90;57.01;101130.63;4952687;28;20054;-71
2022/10/23 09:15:12;;;;;;;15.98;7.20;;;;;;;21.72;57.42;101129.44;4952758;28;20039;-71
2022/10/23 09:17:40;;;;;;;10.50;7.28;;;;;;;21.79;57.98;101118.16;4953145;28;20039;-70
2022/10/23 09:20:18;;;;;;;14.73;7.10;;;;;;;21.71;57.51;101121.53;4954614;29;20027;-70
2022/10/23 09:22:45;;;;;;;13.30;7.10;;;;;;;21.59;58.19;101112.94;4948936;28;20039;-70
2022/10/23 09:25:22;;;;;;;12.82;7.60;;;;;;;21.83;57.74;101113.75;4946978;28;20126;-71
2022/10/23 09:27:50;;;;;;;13.63;7.78;;;;;;;21.94;57.20;101098.00;4946447;28;20045;-72
2022/10/23 09:30:45;;;;;;;18.00;8.10;;;;;;;22.06;57.29;101091.00;4943631;28;20053;-72
2022/10/23 09:33:15;;;;;;;21.27;8.82;;;;;;;22.00;57.47;101085.88;4893900;29;20060;-70
2022/10/23 09:35:50;;;;;;;15.40;8.10;;;;;;;21.85;58.28;101081.44;4895169;29;20052;-71
2022/10/23 09:38:36;;;;;;;17.67;6.75;;;;;;;21.88;57.56;101088.25;4895886;29;20055;-71
2022/10/23 09:41:09;;;;;;;14.60;6.50;;;;;;;22.12;57.48;101089.00;4894449;29;20048;-71
2022/10/23 09:43:34;;;;;;;21.40;7.18;;;;;;;21.90;57.89;101083.28;4894782;29;20047;-70
2022/10/23 09:46:03;;;;;;;16.05;6.45;;;;;;;22.18;57.39;101085.91;4894421;29;20697;-71
2022/10/23 09:48:29;;;;;;;13.88;7.03;;;;;;;22.65;55.50;101080.25;4894567;29;20073;-71
2022/10/23 09:51:22;;;;;;;12.82;6.43;;;;;;;22.42;56.64;101077.59;4894463;29;20051;-71
2022/10/23 09:53:53;;;;;;;11.02;5.60;;;;;;;22.49;56.11;101076.09;4891196;29;20690;-71
2022/10/23 09:56:40;;;;;;;11.30;6.55;;;;;;;22.67;56.35;101075.28;4895447;29;21475;-70
2022/10/23 09:59:11;;;;;;;13.85;6.72;;;;;;;22.84;55.90;101084.91;4892865;29;20052;-70
2022/10/23 10:01:49;;;;;;;21.95;7.00;;;;;;;23.12;54.97;101079.16;4894059;29;20060;-70
2022/10/23 10:04:16;;;;;;;16.75;7.22;;;;;;;22.69;55.93;101073.06;4894434;29;20048;-72
2022/10/23 10:06:41;;;;;;;12.45;5.72;;;;;;;22.46;56.35;101070.41;4889219;29;20152;-72
2022/10/23 10:09:17;;;;;;;11.85;5.45;;;;;;;22.60;56.12;101071.31;4909113;28;20061;-70
2022/10/23 10:12:18;;;;;;;11.00;6.47;;;;;;;22.85;55.36;101067.31;4952240;28;20035;-70
2022/10/23 10:14:59;;;;;;;12.68;5.38;;;;;;;22.30;56.76;101069.03;4949926;28;20047;-71
2022/10/23 10:17:32;;;;;;;8.52;5.53;;;;;;;22.40;56.68;101060.66;4950835;28;20035;-69
2022/10/23 10:20:36;;;;;;;12.60;5.95;;;;;;;22.50;56.23;101052.28;4953795;28;20085;-70
2022/10/23 10:23:19;;;;;;;14.32;5.68;;;;;;;22.71;55.81;101050.84;4874037;29;20057;-71
2022/10/23 10:26:17;;;;;;;17.95;5.95;;;;;;;22.87;55.01;101043.97;4884143;29;20077;-69
2022/10/23 10:28:57;;;;;;;15.07;5.70;;;;;;;22.75;55.10;101051.06;4883804;29;20041;-69
2022/10/23 10:31:28;;;;;;;13.52;5.55;;;;;;;22.92;55.22;101037.59;4881501;29;20153;-70
2022/10/23 10:34:03;;;;;;;12.77;5.78;;;;;;;22.90;54.75;101034.34;4881439;29;20115;-71
2022/10/23 10:36:51;;;;;;;17.27;5.57;;;;;;;22.56;55.73;101026.44;4879953;29;20053;-70
2022/10/23 10:39:37;;;;;;;9.38;4.40;;;;;;;22.35;56.83;101025.13;4882723;29;20574;-71
2022/10/23 10:42:36;;;;;;;10.80;5.40;;;;;;;22.50;56.55;101014.75;4883890;29;20055;-69
2022/10/23 10:45:25;;;;;;;11.90;5.80;;;;;;;22.33;56.90;101013.66;4880991;29;20077;-71
2022/10/23 10:48:26;;;;;;;12.32;5.38;;;;;;;22.29;56.80;101013.44;4884095;29;20045;-72
2022/10/23 10:51:15;;;;;;;12.75;5.78;;;;;;;21.97;58.29;101010.69;4880426;29;20056;-71
2022/10/23 10:54:18;;;;;;;12.43;5.38;;;;;;;22.92;55.37;101024.69;4872630;29;20536;-70
2022/10/23 10:56:46;;;;;;;9.85;5.20;;;;;;;22.78;55.91;101018.38;4873224;29;20029;-69
2022/10/23 10:59:19;;;;;;;11.70;5.47;;;;;;;22.64;56.08;101018.34;4889097;29;20556;-70
2022/10/23 11:01:50;;;;;;;19.88;7.07;;;;;;;23.11;54.71;101017.22;4943528;28;20055;-71
2022/10/23 11:04:31;;;;;;;11.68;5.80;;;;;;;23.11;54.76;101016.41;4942705;28;20027;-69
2022/10/23 11:06:57;;;;;;;;;;;;;;;23.07;55.23;101010.72;4946636;28;20502;-70
2022/10/23 11:09:28;;;;;;;10.57;5.22;;;;;;;23.17;55.47;100985.84;4946191;28;19918;-69
2022/10/23 11:11:54;;;;;;;12.85;5.32;;;;;;;23.28;54.94;100973.53;4951269;28;20035;-69
2022/10/23 11:14:28;;;;;;;11.65;5.90;;;;;;;23.24;54.69;100975.25;4952169;28;20027;-70
2022/10/23 11:17:07;;;;;;;10.07;5.72;;;;;;;23.21;55.10;100967.63;4950990;28;20411;-70
2022/10/23 11:19:52;;;;;;;8.05;5.78;;;;;;;22.80;56.48;100957.81;4951035;28;20082;-70
2022/10/23 11:22:37;;;;;;;13.27;5.38;;;;;;;23.30;55.07;100954.84;4951116;28;20039;-69
2022/10/23 11:25:02;;;;;;;10.52;5.28;;;;;;;23.28;55.07;100939.81;4948808;28;20051;-71